Time;durP1;ratioP1;P1;durP2;ratioP2;P2;SDS_P1;SDS_P2;PMS_P1;PMS_P2;Temp;Humidity;BMP_temperature;BMP_pressure;BME280_temperature;BME280_humidity;BME280_pressure;Samples;Min_cycle;Max_cycle;Signal;HPM_P1;HPM_P2
2021/09/25 00:01:20;;;;;;;2.50;2.25;;;;;;;;;;5059639;28;20048;-66
2021/09/25 00:03:46;;;;;;;3.88;2.50;;;;;;;;;;5067710;28;20082;-66
2021/09/25 00:06:12;;;;;;;2.42;2.22;;;;;;;;;;5068924;28;20066;-66
2021/09/25 00:08:40;;;;;;;2.53;2.33;;;;;;;;;;5086826;28;20028;-66
2021/09/25 00:11:06;;;;;;;2.20;2.00;;;;;;;;;;5088394;28;20024;-66
2021/09/25 00:13:32;;;;;;;2.60;2.10;;;;;;;;;;5088207;28;20024;-66
2021/09/25 00:15:58;;;;;;;2.58;2.38;;;;;;;;;;5088126;28;20024;-66
2021/09/25 00:18:24;;;;;;;2.35;2.15;;;;;;;;;;5087836;28;20035;-66
2021/09/25 00:20:50;;;;;;;2.38;2.17;;;;;;;;;;5086610;28;20093;-66
2021/09/25 00:23:16;;;;;;;1.77;1.67;;;;;;;;;;5087924;28;20437;-65
2021/09/25 00:25:43;;;;;;;2.28;2.00;;;;;;;;;;5088663;28;20024;-65
2021/09/25 00:28:09;;;;;;;2.35;2.15;;;;;;;;;;5086952;28;20020;-66
2021/09/25 00:30:35;;;;;;;2.42;2.22;;;;;;;;;;5087703;28;20028;-66
2021/09/25 00:33:01;;;;;;;2.40;2.20;;;;;;;;;;5087822;28;20578;-66
2021/09/25 00:35:27;;;;;;;2.00;1.88;;;;;;;;;;5087625;28;20568;-66
2021/09/25 00:37:53;;;;;;;2.55;2.22;;;;;;;;;;5070249;28;20058;-66
2021/09/25 00:40:19;;;;;;;2.60;2.28;;;;;;;;;;5067122;28;20560;-66
2021/09/25 00:42:45;;;;;;;3.45;2.55;;;;;;;;;;5067157;28;20032;-66
2021/09/25 00:45:12;;;;;;;2.40;2.20;;;;;;;;;;5068038;28;20039;-66
2021/09/25 00:47:38;;;;;;;2.10;1.95;;;;;;;;;;5067133;28;20027;-65
2021/09/25 00:50:06;;;;;;;2.53;2.13;;;;;;;;;;5067275;28;20029;-65
2021/09/25 00:52:32;;;;;;;2.28;2.08;;;;;;;;;;5066934;28;20613;-65
2021/09/25 00:54:58;;;;;;;2.50;2.30;;;;;;;;;;5066319;28;20044;-65
2021/09/25 00:57:24;;;;;;;3.17;2.17;;;;;;;;;;5066575;28;20108;-65
2021/09/25 00:59:51;;;;;;;3.30;2.75;;;;;;;;;;5066546;28;20032;-65
2021/09/25 01:02:17;;;;;;;3.33;2.47;;;;;;;;;;5073868;28;20020;-66
2021/09/25 01:04:46;;;;;;;2.90;2.60;;;;;;;;;;5071538;28;20032;-66
2021/09/25 01:07:12;;;;;;;4.50;2.78;;;;;;;;;;5067367;28;20071;-66
2021/09/25 01:09:39;;;;;;;2.85;2.55;;;;;;;;;;5066587;28;20111;-66
2021/09/25 01:12:05;;;;;;;3.53;2.53;;;;;;;;;;5066964;28;20107;-65
2021/09/25 01:14:31;;;;;;;4.00;2.80;;;;;;;;;;5065447;28;20028;-66
2021/09/25 01:17:04;;;;;;;3.30;3.00;;;;;;;;;;5066651;28;20131;-65
2021/09/25 01:19:31;;;;;;;3.17;2.87;;;;;;;;;;5066214;28;20090;-65
2021/09/25 01:21:57;;;;;;;2.72;2.42;;;;;;;;;;5066524;28;20032;-65
2021/09/25 01:24:23;;;;;;;3.75;2.80;;;;;;;;;;5080730;28;20118;-66
2021/09/25 01:26:49;;;;;;;2.72;2.45;;;;;;;;;;5085142;28;20025;-66
2021/09/25 01:29:15;;;;;;;3.13;2.60;;;;;;;;;;5078312;28;20103;-66
2021/09/25 01:31:41;;;;;;;2.67;2.47;;;;;;;;;;5066914;28;20054;-66
2021/09/25 01:34:07;;;;;;;3.20;2.40;;;;;;;;;;5066678;28;20879;-67
2021/09/25 01:36:33;;;;;;;3.13;2.83;;;;;;;;;;5065117;28;20412;-67
2021/09/25 01:39:00;;;;;;;3.55;3.05;;;;;;;;;;5066546;28;20090;-67
2021/09/25 01:41:26;;;;;;;2.70;2.50;;;;;;;;;;5066034;28;20031;-66
2021/09/25 01:43:52;;;;;;;2.45;2.25;;;;;;;;;;5065642;28;20443;-66
2021/09/25 01:46:18;;;;;;;3.33;2.75;;;;;;;;;;5065625;28;20029;-66
2021/09/25 01:48:44;;;;;;;2.80;2.42;;;;;;;;;;5065644;28;20021;-66
2021/09/25 01:51:12;;;;;;;2.42;2.22;;;;;;;;;;5066313;28;20517;-66
2021/09/25 01:53:38;;;;;;;2.67;2.47;;;;;;;;;;5066274;28;20029;-66
2021/09/25 01:56:12;;;;;;;2.40;2.20;;;;;;;;;;5068819;28;20073;-66
2021/09/25 01:58:38;;;;;;;2.60;2.40;;;;;;;;;;5086127;28;20059;-66
2021/09/25 02:01:05;;;;;;;2.63;2.20;;;;;;;;;;5086436;28;20289;-66
2021/09/25 02:03:41;;;;;;;2.83;2.40;;;;;;;;;;5076768;28;20025;-66
2021/09/25 02:06:08;;;;;;;2.45;2.25;;;;;;;;;;5066166;28;20596;-66
2021/09/25 02:08:34;;;;;;;2.53;2.30;;;;;;;;;;5066020;28;20639;-66
2021/09/25 02:11:01;;;;;;;3.35;2.70;;;;;;;;;;5069803;28;20112;-66
2021/09/25 02:13:27;;;;;;;2.55;2.35;;;;;;;;;;5069303;28;20029;-66
2021/09/25 02:15:53;;;;;;;2.60;2.40;;;;;;;;;;5070511;28;20032;-66
2021/09/25 02:18:20;;;;;;;2.67;2.47;;;;;;;;;;5070349;28;20032;-65
2021/09/25 02:20:46;;;;;;;4.00;2.67;;;;;;;;;;5070247;28;20078;-65
2021/09/25 02:23:12;;;;;;;3.00;2.70;;;;;;;;;;5076055;28;20054;-65
2021/09/25 02:25:38;;;;;;;2.63;2.15;;;;;;;;;;5069710;28;20035;-65
2021/09/25 02:28:04;;;;;;;2.70;2.42;;;;;;;;;;5069949;28;20036;-65
2021/09/25 02:30:30;;;;;;;3.47;2.05;;;;;;;;;;5069617;28;20029;-66
2021/09/25 02:32:56;;;;;;;2.50;2.30;;;;;;;;;;5069843;28;20380;-66
2021/09/25 02:35:23;;;;;;;2.70;2.22;;;;;;;;;;5069404;28;20811;-66
2021/09/25 02:37:50;;;;;;;2.50;2.30;;;;;;;;;;5070673;28;20028;-66
2021/09/25 02:40:16;;;;;;;2.38;2.17;;;;;;;;;;5069620;28;20028;-66
2021/09/25 02:42:44;;;;;;;2.30;2.10;;;;;;;;;;5069838;28;20032;-66
2021/09/25 02:45:10;;;;;;;2.42;2.10;;;;;;;;;;5068610;28;20523;-66
2021/09/25 02:47:36;;;;;;;2.38;2.10;;;;;;;;;;5069123;28;20426;-66
2021/09/25 02:50:03;;;;;;;2.33;2.13;;;;;;;;;;5069688;28;20539;-66
2021/09/25 02:52:29;;;;;;;2.83;2.20;;;;;;;;;;5069441;28;20024;-66
2021/09/25 02:54:56;;;;;;;2.30;2.10;;;;;;;;;;5068785;28;20067;-65
2021/09/25 02:57:22;;;;;;;2.28;2.08;;;;;;;;;;5069613;28;20458;-65
2021/09/25 02:59:48;;;;;;;2.10;1.90;;;;;;;;;;5069249;28;20045;-65
2021/09/25 03:02:14;;;;;;;1.98;1.80;;;;;;;;;;5068859;28;20028;-66
2021/09/25 03:04:40;;;;;;;2.25;2.05;;;;;;;;;;5079877;28;20034;-66
2021/09/25 03:07:07;;;;;;;2.15;1.95;;;;;;;;;;5089405;28;20471;-66
2021/09/25 03:09:34;;;;;;;2.25;2.05;;;;;;;;;;5089042;28;20024;-65
2021/09/25 03:12:00;;;;;;;2.17;1.98;;;;;;;;;;5088072;28;20017;-66
2021/09/25 03:14:26;;;;;;;2.10;1.90;;;;;;;;;;5087654;28;20111;-66
2021/09/25 03:16:53;;;;;;;2.50;2.10;;;;;;;;;;5075472;28;20020;-66
2021/09/25 03:19:19;;;;;;;2.70;2.17;;;;;;;;;;5069346;28;20028;-65
2021/09/25 03:21:45;;;;;;;2.20;2.00;;;;;;;;;;5067890;28;20025;-66
2021/09/25 03:24:11;;;;;;;2.28;2.08;;;;;;;;;;5049804;28;20052;-66
2021/09/25 03:26:37;;;;;;;2.67;2.13;;;;;;;;;;5068941;28;20884;-66
2021/09/25 03:29:04;;;;;;;2.47;2.20;;;;;;;;;;5068674;28;20021;-66
2021/09/25 03:31:30;;;;;;;2.10;1.90;;;;;;;;;;5068368;28;20023;-66
2021/09/25 03:33:56;;;;;;;2.17;1.98;;;;;;;;;;5081266;28;20480;-66
2021/09/25 03:36:23;;;;;;;2.10;1.90;;;;;;;;;;5069173;28;20020;-66
2021/09/25 03:38:49;;;;;;;1.75;1.65;;;;;;;;;;5069334;28;20039;-66
2021/09/25 03:41:15;;;;;;;2.38;1.83;;;;;;;;;;5067204;28;20020;-66
2021/09/25 03:43:41;;;;;;;2.30;2.10;;;;;;;;;;5067766;28;20036;-66
2021/09/25 03:46:07;;;;;;;2.50;2.30;;;;;;;;;;5067605;28;20036;-66
2021/09/25 03:48:33;;;;;;;2.25;2.05;;;;;;;;;;5068974;28;20125;-66
2021/09/25 03:50:59;;;;;;;1.88;1.77;;;;;;;;;;5068630;28;20028;-66
2021/09/25 03:53:25;;;;;;;1.92;1.70;;;;;;;;;;5067515;28;20055;-66
2021/09/25 03:55:52;;;;;;;1.98;1.80;;;;;;;;;;5067942;28;20024;-66
2021/09/25 03:58:18;;;;;;;1.77;1.67;;;;;;;;;;5068359;28;20032;-66
2021/09/25 04:00:44;;;;;;;1.50;1.40;;;;;;;;;;5068010;28;20104;-66
2021/09/25 04:03:13;;;;;;;1.85;1.70;;;;;;;;;;5067116;28;20371;-66
2021/09/25 04:05:40;;;;;;;1.73;1.63;;;;;;;;;;5082572;28;20025;-66
2021/09/25 04:08:06;;;;;;;2.25;1.88;;;;;;;;;;5069473;28;20024;-66
2021/09/25 04:10:33;;;;;;;2.45;2.15;;;;;;;;;;5088778;28;20721;-66
2021/09/25 04:12:59;;;;;;;3.38;2.08;;;;;;;;;;5088484;28;20107;-66
2021/09/25 04:15:25;;;;;;;1.90;1.80;;;;;;;;;;5076303;28;20024;-66
2021/09/25 04:17:52;;;;;;;2.13;1.83;;;;;;;;;;5066861;28;20034;-66
2021/09/25 04:20:18;;;;;;;2.28;1.88;;;;;;;;;;5049594;28;20037;-66
2021/09/25 04:22:44;;;;;;;1.85;1.73;;;;;;;;;;5076071;28;20024;-66
2021/09/25 04:25:10;;;;;;;1.85;1.60;;;;;;;;;;5079024;28;20422;-66
2021/09/25 04:27:36;;;;;;;2.15;1.80;;;;;;;;;;5067514;28;20104;-66
2021/09/25 04:30:03;;;;;;;1.70;1.60;;;;;;;;;;5068210;28;20384;-67
2021/09/25 04:32:29;;;;;;;1.70;1.60;;;;;;;;;;5067190;28;20395;-67
2021/09/25 04:34:55;;;;;;;1.92;1.80;;;;;;;;;;5072137;28;20110;-66
2021/09/25 04:37:22;;;;;;;1.92;1.75;;;;;;;;;;5087260;28;20028;-66
2021/09/25 04:39:48;;;;;;;2.40;2.20;;;;;;;;;;5087622;28;20020;-66
2021/09/25 04:42:14;;;;;;;2.08;1.77;;;;;;;;;;5087635;28;20036;-66
2021/09/25 04:44:40;;;;;;;2.15;1.90;;;;;;;;;;5083272;28;20051;-66
2021/09/25 04:47:06;;;;;;;2.10;1.90;;;;;;;;;;5067299;28;20063;-66
2021/09/25 04:49:32;;;;;;;2.33;1.90;;;;;;;;;;5067804;28;20031;-66
2021/09/25 04:51:58;;;;;;;1.88;1.67;;;;;;;;;;5067390;28;20032;-65
2021/09/25 04:54:24;;;;;;;1.98;1.77;;;;;;;;;;5066062;28;20024;-65
2021/09/25 04:56:50;;;;;;;1.75;1.65;;;;;;;;;;5067321;28;20024;-66
2021/09/25 04:59:16;;;;;;;2.65;1.50;;;;;;;;;;5066548;28;20117;-65
2021/09/25 05:01:42;;;;;;;1.85;1.70;;;;;;;;;;5066563;28;20032;-67
2021/09/25 05:04:10;;;;;;;2.08;1.95;;;;;;;;;;5066476;28;20411;-66
2021/09/25 05:06:36;;;;;;;2.20;1.73;;;;;;;;;;5028756;28;20098;-66
2021/09/25 05:09:02;;;;;;;1.90;1.50;;;;;;;;;;5047471;28;20021;-66
2021/09/25 05:11:28;;;;;;;1.88;1.70;;;;;;;;;;5046664;28;20507;-66
2021/09/25 05:13:54;;;;;;;1.73;1.63;;;;;;;;;;5078403;28;20164;-66
2021/09/25 05:16:20;;;;;;;2.03;1.83;;;;;;;;;;5068868;28;20032;-66
2021/09/25 05:18:46;;;;;;;1.98;1.80;;;;;;;;;;5086775;28;20020;-66
2021/09/25 05:21:12;;;;;;;1.92;1.73;;;;;;;;;;5086934;28;20060;-66
2021/09/25 05:23:38;;;;;;;2.92;2.38;;;;;;;;;;5086494;28;20422;-66
2021/09/25 05:26:05;;;;;;;2.78;2.47;;;;;;;;;;5071792;28;20064;-66
2021/09/25 05:28:32;;;;;;;3.03;2.10;;;;;;;;;;5066670;28;20024;-66
2021/09/25 05:30:58;;;;;;;2.88;2.55;;;;;;;;;;5066576;28;20036;-66
2021/09/25 05:33:25;;;;;;;2.30;2.10;;;;;;;;;;5066331;28;20111;-67
2021/09/25 05:35:51;;;;;;;2.20;2.00;;;;;;;;;;5066482;28;20074;-67
2021/09/25 05:38:17;;;;;;;2.40;2.20;;;;;;;;;;5074808;28;20040;-66
2021/09/25 05:40:43;;;;;;;2.33;2.13;;;;;;;;;;5066860;28;20067;-66
2021/09/25 05:43:09;;;;;;;3.05;2.10;;;;;;;;;;5066016;28;20653;-66
2021/09/25 05:45:35;;;;;;;2.25;2.05;;;;;;;;;;5072269;28;20509;-66
2021/09/25 05:48:01;;;;;;;1.90;1.80;;;;;;;;;;5080100;28;20099;-66
2021/09/25 05:50:27;;;;;;;2.20;2.00;;;;;;;;;;5085202;28;20482;-66
2021/09/25 05:52:54;;;;;;;2.05;1.80;;;;;;;;;;5086569;28;20406;-66
2021/09/25 05:55:21;;;;;;;3.00;2.13;;;;;;;;;;5086408;28;20036;-61
2021/09/25 05:57:47;;;;;;;1.85;1.73;;;;;;;;;;5078546;28;20029;-66
2021/09/25 06:00:14;;;;;;;1.80;1.70;;;;;;;;;;5066154;28;20415;-66
2021/09/25 06:02:40;;;;;;;2.35;1.77;;;;;;;;;;5065777;28;20410;-66
2021/09/25 06:05:07;;;;;;;2.00;1.80;;;;;;;;;;5066201;28;20458;-66
2021/09/25 06:07:34;;;;;;;1.83;1.73;;;;;;;;;;5065074;28;20016;-66
2021/09/25 06:10:00;;;;;;;1.50;1.40;;;;;;;;;;5066389;28;20423;-67
2021/09/25 06:12:26;;;;;;;1.88;1.77;;;;;;;;;;5075855;28;20494;-66
2021/09/25 06:14:53;;;;;;;1.63;1.52;;;;;;;;;;5056469;28;20111;-66
2021/09/25 06:17:20;;;;;;;1.98;1.77;;;;;;;;;;5059831;28;20071;-66
2021/09/25 06:19:47;;;;;;;2.00;1.30;;;;;;;;;;5059863;28;20079;-67
2021/09/25 06:22:14;;;;;;;1.67;1.40;;;;;;;;;;5064709;28;20306;-67
2021/09/25 06:24:40;;;;;;;2.10;1.92;;;;;;;;;;5059928;28;20029;-66
2021/09/25 06:27:07;;;;;;;1.60;1.50;;;;;;;;;;5067467;28;20020;-67
2021/09/25 06:29:34;;;;;;;1.60;1.50;;;;;;;;;;5045681;28;20160;-66
2021/09/25 06:32:00;;;;;;;1.98;1.83;;;;;;;;;;5056570;28;20020;-67
2021/09/25 06:34:27;;;;;;;1.90;1.70;;;;;;;;;;5080429;28;20406;-67
2021/09/25 06:36:53;;;;;;;1.58;1.48;;;;;;;;;;5068304;28;20032;-67
2021/09/25 06:39:21;;;;;;;2.35;1.40;;;;;;;;;;5064062;28;20048;-67
2021/09/25 06:41:47;;;;;;;2.20;2.00;;;;;;;;;;5065159;28;20035;-67
2021/09/25 06:44:13;;;;;;;1.83;1.60;;;;;;;;;;5076763;28;20570;-66
2021/09/25 06:46:39;;;;;;;1.60;1.40;;;;;;;;;;5084914;28;20267;-67
2021/09/25 06:49:05;;;;;;;1.50;1.40;;;;;;;;;;5084731;28;20485;-66
2021/09/25 06:51:32;;;;;;;1.45;1.35;;;;;;;;;;5075287;28;20500;-66
2021/09/25 06:53:58;;;;;;;1.60;1.50;;;;;;;;;;5063034;28;20078;-66
2021/09/25 06:56:24;;;;;;;1.70;1.60;;;;;;;;;;5066571;28;20028;-65
2021/09/25 06:58:51;;;;;;;1.50;1.40;;;;;;;;;;5069422;28;20027;-65
2021/09/25 07:01:17;;;;;;;1.50;1.40;;;;;;;;;;5068734;28;20107;-66
2021/09/25 07:03:44;;;;;;;1.63;1.52;;;;;;;;;;5068008;28;20049;-66
2021/09/25 07:06:10;;;;;;;1.88;1.70;;;;;;;;;;5068722;28;20032;-65
2021/09/25 07:08:36;;;;;;;1.67;1.50;;;;;;;;;;5071166;28;20028;-65
2021/09/25 07:11:02;;;;;;;1.85;1.65;;;;;;;;;;5086940;28;20418;-65
2021/09/25 07:13:29;;;;;;;1.67;1.58;;;;;;;;;;5085051;28;20043;-65
2021/09/25 07:15:55;;;;;;;1.60;1.50;;;;;;;;;;5051268;28;20051;-67
2021/09/25 07:18:21;;;;;;;1.75;1.65;;;;;;;;;;5068284;28;20434;-65
2021/09/25 07:20:47;;;;;;;1.60;1.50;;;;;;;;;;5069274;28;20110;-65
2021/09/25 07:23:14;;;;;;;1.65;1.45;;;;;;;;;;5069055;28;20158;-65
2021/09/25 07:25:40;;;;;;;1.83;1.48;;;;;;;;;;5068797;28;20549;-65
2021/09/25 07:28:07;;;;;;;1.35;1.25;;;;;;;;;;5081387;28;20030;-66
2021/09/25 07:30:35;;;;;;;1.30;1.20;;;;;;;;;;5073221;28;20411;-67
2021/09/25 07:33:01;;;;;;;1.40;1.30;;;;;;;;;;5078670;28;20089;-66
2021/09/25 07:35:27;;;;;;;1.40;1.17;;;;;;;;;;5072111;28;20532;-66
2021/09/25 07:37:54;;;;;;;1.17;1.10;;;;;;;;;;5069681;28;20036;-65
2021/09/25 07:40:20;;;;;;;1.20;1.10;;;;;;;;;;5068526;28;20032;-65
2021/09/25 07:42:46;;;;;;;1.33;1.23;;;;;;;;;;5076788;28;20571;-65
2021/09/25 07:45:12;;;;;;;1.48;1.10;;;;;;;;;;5085383;28;20024;-65
2021/09/25 07:47:38;;;;;;;1.58;1.48;;;;;;;;;;5082901;28;20032;-66
2021/09/25 07:50:06;;;;;;;1.52;1.30;;;;;;;;;;5065828;28;20082;-65
2021/09/25 07:52:32;;;;;;;1.80;1.25;;;;;;;;;;5050588;28;20108;-65
2021/09/25 07:54:59;;;;;;;1.77;1.48;;;;;;;;;;5068570;28;20024;-66
2021/09/25 07:57:26;;;;;;;1.25;1.15;;;;;;;;;;5068112;28;20024;-64
2021/09/25 07:59:52;;;;;;;1.65;1.33;;;;;;;;;;5075948;28;20383;-66
2021/09/25 08:02:18;;;;;;;1.52;1.40;;;;;;;;;;5066317;28;20396;-65
2021/09/25 08:04:44;;;;;;;1.73;1.63;;;;;;;;;;5067340;28;20032;-65
2021/09/25 08:07:10;;;;;;;1.70;1.60;;;;;;;;;;5072281;28;20028;-66
2021/09/25 08:09:36;;;;;;;1.60;1.50;;;;;;;;;;5065106;28;20028;-65
2021/09/25 08:12:02;;;;;;;1.95;1.67;;;;;;;;;;5068647;28;20618;-66
2021/09/25 08:14:28;;;;;;;1.85;1.38;;;;;;;;;;5066068;28;20036;-65
2021/09/25 08:16:54;;;;;;;1.80;1.70;;;;;;;;;;5078654;28;20379;-64
2021/09/25 08:19:21;;;;;;;5.22;1.58;;;;;;;;;;5067318;28;20399;-65
2021/09/25 08:21:47;;;;;;;2.40;1.90;;;;;;;;;;5068160;28;20043;-65
2021/09/25 08:24:13;;;;;;;1.90;1.67;;;;;;;;;;5068322;28;20020;-63
2021/09/25 08:26:39;;;;;;;2.13;1.92;;;;;;;;;;5054262;28;20797;-65
2021/09/25 08:29:05;;;;;;;1.98;1.77;;;;;;;;;;5058923;28;20035;-64
2021/09/25 08:31:31;;;;;;;1.77;1.67;;;;;;;;;;5070991;28;20031;-63
2021/09/25 08:33:57;;;;;;;2.55;2.10;;;;;;;;;;5066566;28;20029;-67
2021/09/25 08:36:23;;;;;;;1.98;1.80;;;;;;;;;;5066103;28;20025;-67
2021/09/25 08:38:49;;;;;;;2.75;2.50;;;;;;;;;;5067813;28;20021;-67
2021/09/25 08:41:16;;;;;;;2.92;2.13;;;;;;;;;;5088248;28;20413;-69
2021/09/25 08:43:42;;;;;;;4.93;2.42;;;;;;;;;;5075134;28;20033;-66
2021/09/25 08:46:08;;;;;;;3.03;2.40;;;;;;;;;;5065145;28;20020;-64
2021/09/25 08:48:36;;;;;;;3.00;2.22;;;;;;;;;;5067600;28;20464;-65
2021/09/25 08:51:03;;;;;;;2.33;2.13;;;;;;;;;;5062501;28;20024;-64
2021/09/25 08:53:29;;;;;;;4.25;2.22;;;;;;;;;;5067968;28;20028;-67
2021/09/25 08:55:55;;;;;;;4.22;2.60;;;;;;;;;;5067647;28;20103;-64
2021/09/25 08:58:21;;;;;;;2.92;2.45;;;;;;;;;;5068040;28;20051;-67
2021/09/25 09:00:48;;;;;;;2.90;2.22;;;;;;;;;;5067068;28;20130;-66
2021/09/25 09:03:20;;;;;;;3.50;2.88;;;;;;;;;;5065771;28;20028;-68
2021/09/25 09:05:46;;;;;;;2.90;2.50;;;;;;;;;;5066468;28;20020;-65
2021/09/25 09:08:12;;;;;;;2.47;2.28;;;;;;;;;;5049115;28;20615;-68
2021/09/25 09:10:39;;;;;;;3.63;2.67;;;;;;;;;;5067617;28;20343;-68
2021/09/25 09:13:05;;;;;;;2.80;2.60;;;;;;;;;;5060421;28;20059;-68
2021/09/25 09:15:32;;;;;;;3.17;2.67;;;;;;;;;;5064956;28;20149;-69
2021/09/25 09:18:00;;;;;;;2.33;1.98;;;;;;;;;;5067804;28;20028;-67
2021/09/25 09:20:27;;;;;;;2.20;2.00;;;;;;;;;;5066420;28;20028;-69
2021/09/25 09:23:12;;;;;;;2.58;2.38;;;;;;;;;;5067397;28;20552;-67
2021/09/25 09:25:39;;;;;;;3.45;2.35;;;;;;;;;;5067383;28;20119;-67
2021/09/25 09:28:11;;;;;;;3.25;2.25;;;;;;;;;;5067574;28;20025;-68
2021/09/25 09:30:45;;;;;;;2.78;2.13;;;;;;;;;;5067194;28;20056;-68
2021/09/25 09:33:11;;;;;;;2.75;2.35;;;;;;;;;;5067357;28;20032;-68
2021/09/25 09:35:37;;;;;;;2.42;2.00;;;;;;;;;;5066446;28;20028;-68
2021/09/25 09:38:03;;;;;;;2.38;2.00;;;;;;;;;;5059198;28;20128;-68
2021/09/25 09:40:29;;;;;;;3.67;2.67;;;;;;;;;;5057036;28;20457;-68
2021/09/25 09:42:57;;;;;;;5.07;3.47;;;;;;;;;;5066392;28;20039;-69
2021/09/25 09:45:28;;;;;;;3.53;2.90;;;;;;;;;;5066962;28;20104;-68
2021/09/25 09:47:57;;;;;;;5.00;3.30;;;;;;;;;;5067259;28;20043;-68
2021/09/25 09:50:23;;;;;;;4.43;3.10;;;;;;;;;;5066769;28;20032;-67
2021/09/25 09:52:50;;;;;;;5.60;3.65;;;;;;;;;;5067215;28;20099;-67
2021/09/25 09:55:23;;;;;;;3.60;3.03;;;;;;;;;;5066117;28;20390;-67
2021/09/25 09:58:01;;;;;;;3.63;2.70;;;;;;;;;;5065466;28;20117;-68
2021/09/25 10:00:28;;;;;;;3.90;2.78;;;;;;;;;;5065066;28;20036;-68
2021/09/25 10:02:55;;;;;;;3.67;2.65;;;;;;;;;;5065215;28;20032;-69
2021/09/25 10:05:21;;;;;;;4.95;3.08;;;;;;;;;;5065405;28;20395;-69
2021/09/25 10:07:47;;;;;;;2.78;2.22;;;;;;;;;;5066333;28;20451;-69
2021/09/25 10:10:14;;;;;;;2.97;2.42;;;;;;;;;;5066114;28;20024;-68
2021/09/25 10:12:41;;;;;;;5.20;2.30;;;;;;;;;;5065000;28;20028;-69
2021/09/25 10:15:07;;;;;;;2.53;2.15;;;;;;;;;;5063889;28;20427;-68
2021/09/25 10:17:34;;;;;;;3.08;2.40;;;;;;;;;;5065212;28;20035;-66
2021/09/25 10:20:01;;;;;;;3.70;2.50;;;;;;;;;;5065391;28;20032;-69
2021/09/25 10:22:28;;;;;;;3.95;2.67;;;;;;;;;;5063930;28;20032;-69
2021/09/25 10:24:57;;;;;;;3.35;2.75;;;;;;;;;;5047564;28;20538;-68
2021/09/25 10:27:27;;;;;;;5.80;2.75;;;;;;;;;;5065136;28;20025;-69
2021/09/25 10:29:54;;;;;;;3.15;2.58;;;;;;;;;;5065774;28;20028;-69
2021/09/25 10:32:23;;;;;;;3.80;2.70;;;;;;;;;;5067662;28;20121;-68
2021/09/25 10:34:55;;;;;;;2.97;2.65;;;;;;;;;;5069336;28;20036;-68
2021/09/25 10:37:22;;;;;;;5.40;2.20;;;;;;;;;;5069200;28;20056;-65
2021/09/25 10:39:56;;;;;;;3.30;2.95;;;;;;;;;;5069072;28;20028;-65
2021/09/25 10:42:37;;;;;;;3.90;2.33;;;;;;;;;;5068303;28;20042;-65
2021/09/25 10:45:04;;;;;;;2.50;2.30;;;;;;;;;;5069465;28;20028;-65
2021/09/25 10:47:34;;;;;;;2.50;2.20;;;;;;;;;;5067540;28;20048;-69
2021/09/25 10:50:01;;;;;;;2.15;1.95;;;;;;;;;;5069041;28;20130;-67
2021/09/25 10:52:42;;;;;;;2.72;2.40;;;;;;;;;;5068219;28;20410;-68
2021/09/25 10:55:28;;;;;;;2.30;2.00;;;;;;;;;;5067045;28;20024;-68
2021/09/25 10:58:13;;;;;;;3.45;2.00;;;;;;;;;;5064908;28;20495;-68
2021/09/25 11:00:49;;;;;;;3.33;2.10;;;;;;;;;;5067965;28;20028;-68
2021/09/25 11:03:34;;;;;;;1.80;1.70;;;;;;;;;;5064502;28;20029;-69
2021/09/25 11:06:07;;;;;;;3.83;1.90;;;;;;;;;;5068273;28;20393;-68
2021/09/25 11:08:33;;;;;;;1.73;1.63;;;;;;;;;;5067193;28;20025;-69
2021/09/25 11:11:13;;;;;;;3.03;2.25;;;;;;;;;;5067772;28;20029;-69
2021/09/25 11:13:58;;;;;;;2.42;2.20;;;;;;;;;;5067289;28;20036;-68
2021/09/25 11:16:42;;;;;;;1.90;1.50;;;;;;;;;;5077101;28;20033;-70
2021/09/25 11:19:09;;;;;;;2.08;1.65;;;;;;;;;;5078694;28;20033;-64
2021/09/25 11:21:35;;;;;;;2.35;1.67;;;;;;;;;;5082906;28;20040;-70
2021/09/25 11:24:01;;;;;;;3.03;1.80;;;;;;;;;;5089218;28;20027;-69
2021/09/25 11:26:27;;;;;;;2.47;1.63;;;;;;;;;;5074216;28;20618;-69
2021/09/25 11:28:53;;;;;;;2.15;1.55;;;;;;;;;;5069050;28;20029;-70
2021/09/25 11:31:19;;;;;;;1.85;1.52;;;;;;;;;;5082222;28;20036;-66
2021/09/25 11:33:45;;;;;;;2.00;1.60;;;;;;;;;;5071992;28;20105;-68
2021/09/25 11:36:11;;;;;;;3.58;1.50;;;;;;;;;;5067144;28;20446;-71
2021/09/25 11:38:44;;;;;;;1.55;1.30;;;;;;;;;;5066977;28;20515;-71
2021/09/25 11:41:14;;;;;;;3.45;1.80;;;;;;;;;;5066438;28;20107;-68
2021/09/25 11:43:40;;;;;;;1.58;1.35;;;;;;;;;;5067047;28;20028;-69
2021/09/25 11:46:07;;;;;;;3.45;1.60;;;;;;;;;;5068209;28;20020;-68
2021/09/25 11:48:35;;;;;;;2.03;1.55;;;;;;;;;;5068301;28;20032;-66
2021/09/25 11:51:02;;;;;;;2.92;1.85;;;;;;;;;;5084233;28;20425;-66
2021/09/25 11:53:31;;;;;;;4.03;1.75;;;;;;;;;;5087834;28;20107;-69
2021/09/25 11:55:58;;;;;;;3.40;1.90;;;;;;;;;;5068519;28;20400;-69
2021/09/25 11:58:25;;;;;;;2.45;1.50;;;;;;;;;;5055284;28;20066;-70
2021/09/25 12:00:52;;;;;;;1.20;1.08;;;;;;;;;;5067148;28;20044;-69
2021/09/25 12:03:19;;;;;;;2.00;1.42;;;;;;;;;;5066063;28;20062;-69
2021/09/25 12:05:45;;;;;;;2.42;1.20;;;;;;;;;;5085405;28;20503;-71
2021/09/25 12:08:11;;;;;;;2.20;1.38;;;;;;;;;;5074437;28;20083;-70
2021/09/25 12:10:45;;;;;;;2.63;1.48;;;;;;;;;;5071966;28;20032;-69
2021/09/25 12:13:18;;;;;;;2.50;1.67;;;;;;;;;;5068045;28;20044;-72
2021/09/25 12:15:45;;;;;;;1.88;1.55;;;;;;;;;;5077793;28;20032;-69
2021/09/25 12:18:12;;;;;;;1.98;1.50;;;;;;;;;;5079160;28;20055;-68
2021/09/25 12:20:38;;;;;;;2.92;1.80;;;;;;;;;;5067277;28;20032;-67
2021/09/25 12:23:05;;;;;;;1.60;1.50;;;;;;;;;;5080128;28;20028;-70
2021/09/25 12:25:33;;;;;;;2.55;1.50;;;;;;;;;;5077961;28;20025;-66
2021/09/25 12:27:59;;;;;;;1.92;1.48;;;;;;;;;;5076023;28;20860;-71
2021/09/25 12:30:25;;;;;;;4.75;1.73;;;;;;;;;;5086476;28;20024;-70
2021/09/25 12:33:01;;;;;;;3.35;1.50;;;;;;;;;;5073397;28;20346;-70
2021/09/25 12:35:27;;;;;;;2.70;1.50;;;;;;;;;;5067937;28;20099;-67
2021/09/25 12:37:53;;;;;;;2.85;1.75;;;;;;;;;;5067831;28;20028;-69
2021/09/25 12:40:21;;;;;;;3.50;1.60;;;;;;;;;;5066742;28;20064;-68
2021/09/25 12:42:49;;;;;;;2.45;1.48;;;;;;;;;;5085151;28;20113;-68
2021/09/25 12:45:15;;;;;;;4.00;1.88;;;;;;;;;;5086704;28;20062;-68
2021/09/25 12:47:41;;;;;;;1.58;1.40;;;;;;;;;;5086722;28;20032;-67
2021/09/25 12:50:17;;;;;;;5.32;1.40;;;;;;;;;;5080983;28;20036;-68
2021/09/25 12:52:43;;;;;;;1.83;1.10;;;;;;;;;;5079234;28;20073;-68
2021/09/25 12:55:09;;;;;;;3.70;1.48;;;;;;;;;;5051723;28;20039;-68
2021/09/25 12:57:36;;;;;;;1.85;1.10;;;;;;;;;;5065345;28;20443;-68
2021/09/25 13:00:06;;;;;;;1.50;1.40;;;;;;;;;;5066518;28;20032;-70
2021/09/25 13:02:32;;;;;;;1.98;1.38;;;;;;;;;;5081876;28;20036;-69
2021/09/25 13:05:03;;;;;;;1.77;1.10;;;;;;;;;;5073095;28;20016;-69
2021/09/25 13:07:30;;;;;;;1.63;1.15;;;;;;;;;;5085361;28;20089;-69
2021/09/25 13:10:00;;;;;;;1.67;1.00;;;;;;;;;;5067432;28;20613;-71
2021/09/25 13:12:27;;;;;;;1.88;1.40;;;;;;;;;;5075206;28;20043;-66
2021/09/25 13:14:58;;;;;;;2.75;1.33;;;;;;;;;;5078085;28;20024;-68
2021/09/25 13:17:24;;;;;;;4.53;1.65;;;;;;;;;;5077472;28;20597;-69
2021/09/25 13:19:50;;;;;;;1.92;1.13;;;;;;;;;;5063551;28;20390;-67
2021/09/25 13:22:16;;;;;;;1.55;1.42;;;;;;;;;;5048832;28;20411;-69
2021/09/25 13:24:42;;;;;;;4.03;1.70;;;;;;;;;;5076133;28;20372;-66
2021/09/25 13:27:10;;;;;;;2.80;1.13;;;;;;;;;;5077130;28;20546;-67
2021/09/25 13:29:36;;;;;;;1.23;1.13;;;;;;;;;;5086870;28;20024;-67
2021/09/25 13:32:02;;;;;;;2.55;1.30;;;;;;;;;;5079974;28;20031;-67
2021/09/25 13:34:28;;;;;;;3.53;1.40;;;;;;;;;;5068441;28;20048;-72
2021/09/25 13:36:54;;;;;;;1.33;1.02;;;;;;;;;;5086923;28;20050;-65
2021/09/25 13:39:20;;;;;;;2.90;1.50;;;;;;;;;;5052627;28;20600;-70
2021/09/25 13:41:46;;;;;;;2.28;1.38;;;;;;;;;;5066290;28;20086;-69
2021/09/25 13:44:12;;;;;;;1.52;1.30;;;;;;;;;;5066521;28;20024;-68
2021/09/25 13:46:39;;;;;;;3.13;0.95;;;;;;;;;;5073034;28;20035;-69
2021/09/25 13:49:06;;;;;;;2.88;1.33;;;;;;;;;;5086922;28;20024;-70
2021/09/25 13:51:32;;;;;;;3.22;1.25;;;;;;;;;;5069707;28;20081;-69
2021/09/25 13:53:58;;;;;;;1.90;1.35;;;;;;;;;;5083887;28;20027;-66
2021/09/25 13:56:24;;;;;;;2.00;1.20;;;;;;;;;;5067581;28;20028;-70
2021/09/25 13:58:50;;;;;;;2.40;1.20;;;;;;;;;;5065410;28;20043;-68
2021/09/25 14:01:16;;;;;;;1.65;1.25;;;;;;;;;;5072771;28;20476;-69
2021/09/25 14:03:43;;;;;;;1.73;1.40;;;;;;;;;;5061301;28;20023;-67
2021/09/25 14:06:10;;;;;;;1.95;1.35;;;;;;;;;;5065965;28;20024;-69
2021/09/25 14:08:36;;;;;;;3.33;1.50;;;;;;;;;;5067976;28;20048;-63
2021/09/25 14:11:02;;;;;;;2.38;1.45;;;;;;;;;;5086288;28;20406;-65
2021/09/25 14:13:29;;;;;;;2.97;1.70;;;;;;;;;;5074921;28;20025;-65
2021/09/25 14:15:56;;;;;;;4.63;1.77;;;;;;;;;;5066039;28;20040;-66
2021/09/25 14:18:22;;;;;;;2.28;1.20;;;;;;;;;;5065792;28;20032;-66
2021/09/25 14:20:48;;;;;;;1.50;1.05;;;;;;;;;;5065957;28;20076;-65
2021/09/25 14:23:14;;;;;;;3.17;1.20;;;;;;;;;;5064758;28;20091;-64
2021/09/25 14:25:43;;;;;;;2.03;1.40;;;;;;;;;;5065884;28;20570;-66
2021/09/25 14:28:09;;;;;;;2.45;1.40;;;;;;;;;;5065169;28;20484;-67
2021/09/25 14:30:36;;;;;;;2.05;1.85;;;;;;;;;;5065375;28;20423;-67
2021/09/25 14:33:03;;;;;;;2.00;1.42;;;;;;;;;;5081993;28;20039;-67
2021/09/25 14:35:29;;;;;;;4.40;1.60;;;;;;;;;;5085353;28;20059;-67
2021/09/25 14:37:55;;;;;;;6.03;1.83;;;;;;;;;;5072542;28;20123;-66
2021/09/25 14:40:21;;;;;;;4.25;1.42;;;;;;;;;;5065743;28;20036;-68
2021/09/25 14:42:47;;;;;;;2.08;1.48;;;;;;;;;;5064874;28;20033;-65